Terminal Aerodrome Forecast
Issued by NWS Twin Cities, MN

Home | Current Version | Previous Version | Graphics & Text | Print | Product List | Glossary On
Versions: 1 2 3 4 5 6 7 8 9 10 11 12 13 14 15 16 17
000
FTUS43 KMPX 300912 AAA
TAFSTC
TAF AMD
KSTC 300912Z 3009/3106 16004KT 5SM BR OVC003
      TEMPO 3009/3012 2SM BR
     FM301500 19010KT P6SM SCT015
     FM301700 19012G19KT P6SM SKC
     FM310000 17007KT P6SM SKC=

USA.gov is the U.S. government's official web portal to all federal, state and local government web resources and services.